Bison, Oklahoma
Current Conditions -  °F | °C
As of 5:56 PM on Thursday 18 Dec 2014 (Local Time) from KEND Reporting Station
Overcast Overcast  
Wind Chill: 31°   Ceiling: 900
Heat Index: 37°   Visibility: 10mi
Dew Point: 36°   Wind: 8mph
Humidity: 93%   Direction: 30°NNE
Pressure: 30.17"   Gusts: NA
Location:  36.2°N, 97.89°W
Report Text: KEND 182356Z 03007KT 10SM OVC009 03/02 A3017 RMK AO2A SLP226 53011
Loading
Personal Weather Stations






























Interactive Weather Map New forecast layout! Learn more

10-Day Weather Forecast

Advertisements
Track Severe Weather on mobile